Terminal Aerodrome Forecast
Issued by NWS Buffalo, NY

Home | Current Version | Previous Version | Text Only | Print | Product List | Glossary On
Versions: 1 2 3 4 5 6 7 8 9 10 11 12 13 14 15 16 17 18 19 20 21 22 23 24 25
000
FTUS41 KBUF 011100
TAFBUF
TAF
KBUF 011139Z 0112/0212 06005KT 5SM -DZ BR FEW004 OVC009
     FM011400 07005KT P6SM BKN012
     FM011700 06006KT P6SM BKN250
     FM012100 05009KT P6SM BKN045
     FM012300 07008KT P6SM SCT050
     FM021000 14004KT P6SM SCT035=

USA.gov is the U.S. government's official web portal to all federal, state and local government web resources and services.